Time;durP1;ratioP1;P1;durP2;ratioP2;P2;SDS_P1;SDS_P2;PMS_P1;PMS_P2;Temp;Humidity;BMP_temperature;BMP_pressure;BME280_temperature;BME280_humidity;BME280_pressure;Samples;Min_cycle;Max_cycle;Signal;HPM_P1;HPM_P2
2022/01/07 00:00:01;;;;;;;31.65;11.32;;;3.50;99.90;;;;;;4835931;29;20145;-86
2022/01/07 00:02:26;;;;;;;24.75;11.32;;;3.50;99.90;;;;;;4829661;29;20098;-86
2022/01/07 00:04:52;;;;;;;27.40;10.80;;;3.40;99.90;;;;;;4836794;29;20057;-86
2022/01/07 00:07:18;;;;;;;31.05;10.10;;;3.40;99.90;;;;;;4836834;29;20421;-86
2022/01/07 00:09:43;;;;;;;23.52;11.05;;;3.40;99.90;;;;;;4836439;29;20050;-86
2022/01/07 00:12:09;;;;;;;29.33;10.93;;;3.40;99.90;;;;;;4836081;29;20042;-86
2022/01/07 00:14:35;;;;;;;30.63;10.98;;;3.40;99.90;;;;;;4836404;29;20071;-86
2022/01/07 00:17:00;;;;;;;25.40;10.50;;;3.40;99.90;;;;;;4836387;29;20118;-86
2022/01/07 00:19:26;;;;;;;31.02;10.40;;;3.50;99.90;;;;;;4836519;29;20560;-86
2022/01/07 00:21:51;;;;;;;26.38;9.93;;;3.50;99.90;;;;;;4836434;29;20061;-85
2022/01/07 00:24:17;;;;;;;26.63;11.23;;;3.40;99.90;;;;;;4836811;29;20073;-85
2022/01/07 00:26:43;;;;;;;27.90;10.82;;;3.50;99.90;;;;;;4835545;29;20532;-86
2022/01/07 00:29:08;;;;;;;30.63;11.02;;;3.50;99.90;;;;;;4836521;29;20042;-86
2022/01/07 00:31:34;;;;;;;28.48;11.43;;;3.50;99.90;;;;;;4821490;29;20090;-86
2022/01/07 00:33:59;;;;;;;28.10;9.57;;;3.60;99.90;;;;;;4821560;29;20057;-86
2022/01/07 00:36:25;;;;;;;26.13;9.93;;;3.60;99.90;;;;;;4821339;29;20069;-86
2022/01/07 00:38:51;;;;;;;29.00;10.55;;;3.70;99.90;;;;;;4836310;29;20722;-85
2022/01/07 00:41:16;;;;;;;29.95;9.57;;;3.80;99.90;;;;;;4836282;29;20137;-85
2022/01/07 00:43:42;;;;;;;26.65;9.80;;;3.80;99.90;;;;;;4839176;29;20057;-85
2022/01/07 00:46:08;;;;;;;23.42;8.57;;;3.70;99.90;;;;;;4839589;29;20049;-85
2022/01/07 00:48:33;;;;;;;31.63;10.77;;;3.60;99.90;;;;;;4839285;29;20052;-85
2022/01/07 00:50:59;;;;;;;26.70;9.13;;;3.60;99.90;;;;;;4839443;29;20051;-86
2022/01/07 00:53:25;;;;;;;31.27;10.07;;;3.60;99.90;;;;;;4839383;29;20418;-86
2022/01/07 00:55:50;;;;;;;22.92;9.60;;;3.60;99.90;;;;;;4838825;29;20981;-85
2022/01/07 00:58:16;;;;;;;29.05;10.07;;;3.50;99.90;;;;;;4839177;29;20049;-85
2022/01/07 01:00:42;;;;;;;28.00;10.00;;;3.40;99.90;;;;;;4823939;29;20504;-85
2022/01/07 01:03:07;;;;;;;23.02;9.68;;;3.40;99.90;;;;;;4839718;29;20042;-85
2022/01/07 01:05:33;;;;;;;28.42;9.70;;;3.50;99.90;;;;;;4839387;29;20057;-86
2022/01/07 01:07:59;;;;;;;25.85;9.05;;;3.40;99.90;;;;;;4826191;29;20041;-86
2022/01/07 01:10:25;;;;;;;20.63;8.88;;;3.40;99.90;;;;;;4826947;29;20512;-86
2022/01/07 01:12:53;;;;;;;32.78;10.88;;;3.40;99.90;;;;;;4842443;29;20438;-85
2022/01/07 01:15:22;;;;;;;27.23;10.32;;;3.30;99.90;;;;;;4842650;29;20076;-85
2022/01/07 01:17:52;;;;;;;26.60;9.43;;;3.30;99.90;;;;;;4842187;29;20105;-85
2022/01/07 01:20:18;;;;;;;32.40;10.35;;;3.20;99.90;;;;;;4857850;29;20057;-86
2022/01/07 01:22:44;;;;;;;23.77;9.38;;;3.10;99.90;;;;;;4826760;29;20088;-85
2022/01/07 01:25:11;;;;;;;29.67;10.00;;;3.10;99.90;;;;;;4841906;29;20060;-85
2022/01/07 01:27:37;;;;;;;25.50;9.45;;;3.20;99.90;;;;;;4857428;29;20057;-85
2022/01/07 01:30:06;;;;;;;20.00;9.43;;;3.10;99.90;;;;;;4857309;29;20050;-86
2022/01/07 01:32:33;;;;;;;30.23;9.90;;;3.10;99.90;;;;;;4826838;29;20046;-86
2022/01/07 01:34:58;;;;;;;26.58;11.10;;;3.00;99.90;;;;;;4826046;29;20041;-86
2022/01/07 01:37:25;;;;;;;31.83;10.70;;;3.00;99.90;;;;;;4841844;29;20105;-86
2022/01/07 01:39:50;;;;;;;29.10;10.80;;;3.00;99.90;;;;;;4841557;29;20058;-86
2022/01/07 01:42:16;;;;;;;24.30;10.02;;;2.90;99.90;;;;;;4841832;29;20050;-85
2022/01/07 01:44:42;;;;;;;32.03;11.38;;;3.00;99.90;;;;;;4858025;29;20060;-86
2022/01/07 01:47:07;;;;;;;35.75;13.23;;;2.80;99.90;;;;;;4841784;29;20053;-86
2022/01/07 01:49:33;;;;;;;30.92;12.18;;;2.60;99.90;;;;;;4842104;29;20089;-86
2022/01/07 01:52:00;;;;;;;36.63;12.82;;;2.60;99.90;;;;;;4841213;29;20435;-86
2022/01/07 01:54:26;;;;;;;31.50;13.02;;;2.60;99.90;;;;;;4842060;29;20057;-86
2022/01/07 01:56:52;;;;;;;27.92;11.80;;;2.60;99.90;;;;;;4841214;29;20133;-85
2022/01/07 01:59:29;;;;;;;36.38;12.75;;;2.60;99.90;;;;;;4842309;29;20075;-85
2022/01/07 02:01:56;;;;;;;27.63;13.02;;;2.50;99.90;;;;;;4826103;29;20049;-85
2022/01/07 02:04:22;;;;;;;27.48;12.68;;;2.50;99.90;;;;;;4842068;29;20053;-85
2022/01/07 02:06:49;;;;;;;29.17;12.65;;;2.50;99.90;;;;;;4825667;29;20140;-85
2022/01/07 02:09:15;;;;;;;33.10;13.45;;;2.50;99.90;;;;;;4826168;29;20045;-85
2022/01/07 02:11:40;;;;;;;35.17;13.10;;;2.40;99.90;;;;;;4826022;29;20057;-85
2022/01/07 02:14:06;;;;;;;38.95;15.75;;;2.50;99.90;;;;;;4841532;29;20133;-86
2022/01/07 02:16:32;;;;;;;35.30;15.23;;;2.50;99.90;;;;;;4841394;29;20053;-85
2022/01/07 02:18:58;;;;;;;28.92;13.30;;;2.50;99.90;;;;;;4840722;29;20053;-85
2022/01/07 02:21:25;;;;;;;32.80;16.02;;;2.50;99.90;;;;;;4841312;29;20077;-85
2022/01/07 02:23:51;;;;;;;31.35;14.02;;;2.50;99.90;;;;;;4841144;29;20052;-85
2022/01/07 02:26:18;;;;;;;30.98;13.85;;;2.60;99.90;;;;;;4828255;29;20516;-85
2022/01/07 02:28:44;;;;;;;33.03;14.65;;;2.60;99.90;;;;;;4823076;29;20413;-85
2022/01/07 02:31:10;;;;;;;34.47;13.82;;;2.50;99.90;;;;;;4838132;29;20133;-85
2022/01/07 02:33:35;;;;;;;39.45;16.10;;;2.50;99.90;;;;;;4823020;29;20149;-86
2022/01/07 02:36:09;;;;;;;43.70;16.77;;;2.50;99.90;;;;;;4822207;29;20096;-87
2022/01/07 02:38:35;;;;;;;34.85;14.20;;;2.50;99.90;;;;;;4838176;29;20046;-85
2022/01/07 02:41:01;;;;;;;34.47;16.23;;;2.40;99.90;;;;;;4822732;29;20046;-85
2022/01/07 02:43:26;;;;;;;33.38;14.43;;;2.60;99.90;;;;;;4831228;29;20047;-85
2022/01/07 02:45:52;;;;;;;34.15;15.63;;;2.50;99.90;;;;;;4840376;29;20057;-86
2022/01/07 02:48:18;;;;;;;35.80;15.30;;;2.60;99.90;;;;;;4840863;29;20132;-86
2022/01/07 02:50:43;;;;;;;35.40;16.88;;;2.60;99.90;;;;;;4839998;29;20653;-86
2022/01/07 02:53:10;;;;;;;32.03;16.08;;;2.60;99.90;;;;;;4841071;29;20068;-85
2022/01/07 02:55:37;;;;;;;36.22;16.58;;;2.60;99.90;;;;;;4822507;29;20409;-85
2022/01/07 02:58:03;;;;;;;33.00;17.08;;;2.50;99.90;;;;;;4822469;29;20545;-86
2022/01/07 03:00:29;;;;;;;38.55;17.33;;;2.50;99.90;;;;;;4822536;29;20050;-85
2022/01/07 03:02:56;;;;;;;34.28;16.10;;;2.50;99.90;;;;;;4822647;29;20049;-85
2022/01/07 03:05:22;;;;;;;34.83;16.85;;;2.70;99.90;;;;;;4822038;29;20045;-85
2022/01/07 03:07:49;;;;;;;30.48;16.88;;;2.80;99.90;;;;;;4838846;29;20125;-86
2022/01/07 03:10:17;;;;;;;33.58;15.73;;;2.70;99.90;;;;;;4840391;29;20185;-86
2022/01/07 03:12:43;;;;;;;30.70;16.60;;;2.60;99.90;;;;;;4825056;29;20049;-85
2022/01/07 03:15:11;;;;;;;31.80;17.75;;;2.70;99.90;;;;;;4854002;29;20443;-85
2022/01/07 03:17:40;;;;;;;33.45;16.13;;;2.70;99.90;;;;;;4839064;29;20053;-86
2022/01/07 03:20:12;;;;;;;36.17;16.08;;;2.70;99.90;;;;;;4840156;29;20053;-85
2022/01/07 03:22:38;;;;;;;36.95;17.75;;;2.70;99.90;;;;;;4825088;29;20128;-85
2022/01/07 03:25:05;;;;;;;31.10;15.70;;;2.70;99.90;;;;;;4839865;29;20169;-86
2022/01/07 03:27:31;;;;;;;31.80;16.02;;;2.70;99.90;;;;;;4840209;29;20408;-85
2022/01/07 03:29:56;;;;;;;29.88;16.00;;;2.70;99.90;;;;;;4839269;29;20140;-86
2022/01/07 03:32:24;;;;;;;34.03;17.20;;;2.80;99.90;;;;;;4840065;29;20453;-85
2022/01/07 03:34:50;;;;;;;36.45;18.58;;;2.90;99.90;;;;;;4839683;29;20084;-86
2022/01/07 03:37:16;;;;;;;34.42;18.00;;;2.80;99.90;;;;;;4824919;29;20050;-86
2022/01/07 03:39:42;;;;;;;33.45;18.23;;;2.70;99.90;;;;;;4824253;29;20077;-85
2022/01/07 03:42:08;;;;;;;28.33;15.70;;;2.70;99.90;;;;;;4840086;29;20088;-87
2022/01/07 03:44:33;;;;;;;31.25;16.35;;;2.80;99.90;;;;;;4839594;29;20069;-85
2022/01/07 03:46:59;;;;;;;27.17;15.23;;;2.90;99.90;;;;;;4839766;29;20065;-85
2022/01/07 03:49:25;;;;;;;33.92;15.27;;;3.00;99.90;;;;;;4839656;29;20564;-86
2022/01/07 03:51:51;;;;;;;30.52;16.75;;;2.90;99.90;;;;;;4839610;29;20045;-86
2022/01/07 03:54:16;;;;;;;34.47;16.98;;;2.90;99.90;;;;;;4840322;29;20519;-86
2022/01/07 03:56:42;;;;;;;26.85;15.60;;;2.90;99.90;;;;;;4824315;29;20049;-85
2022/01/07 03:59:08;;;;;;;28.52;15.48;;;3.00;99.90;;;;;;4840023;29;20137;-86
2022/01/07 04:01:33;;;;;;;36.88;16.48;;;3.00;99.90;;;;;;4839772;29;20053;-85
2022/01/07 04:03:59;;;;;;;29.85;15.25;;;3.00;99.90;;;;;;4839488;29;20117;-85
2022/01/07 04:06:24;;;;;;;29.10;16.67;;;3.00;99.90;;;;;;4839797;29;20084;-86
2022/01/07 04:08:50;;;;;;;32.83;15.60;;;3.00;99.90;;;;;;4824433;29;20461;-85
2022/01/07 04:11:16;;;;;;;31.08;15.43;;;2.90;99.90;;;;;;4839536;29;20046;-86
2022/01/07 04:13:44;;;;;;;30.05;16.65;;;3.00;99.90;;;;;;4839473;29;20045;-85
2022/01/07 04:16:09;;;;;;;35.88;15.82;;;3.00;99.90;;;;;;4839265;29;20041;-86
2022/01/07 04:18:35;;;;;;;34.92;15.88;;;3.00;99.90;;;;;;4839181;29;20049;-85
2022/01/07 04:21:01;;;;;;;33.00;16.40;;;2.90;99.90;;;;;;4824637;29;20050;-85
2022/01/07 04:23:26;;;;;;;29.00;15.85;;;2.90;99.90;;;;;;4824366;29;20042;-86
2022/01/07 04:25:52;;;;;;;32.70;16.08;;;2.90;99.90;;;;;;4824597;29;20125;-86
2022/01/07 04:28:19;;;;;;;26.95;15.15;;;2.90;99.90;;;;;;4839670;29;20054;-86
2022/01/07 04:30:45;;;;;;;33.85;16.08;;;2.90;99.90;;;;;;4839289;29;20484;-85
2022/01/07 04:33:14;;;;;;;28.98;15.15;;;2.90;99.90;;;;;;4838990;29;20424;-86
2022/01/07 04:35:41;;;;;;;32.85;15.32;;;2.90;99.90;;;;;;4839675;29;20054;-85
2022/01/07 04:38:07;;;;;;;33.95;15.70;;;2.90;99.90;;;;;;4839726;29;20049;-85
2022/01/07 04:40:33;;;;;;;32.80;15.70;;;2.90;99.90;;;;;;4839779;29;20051;-85
2022/01/07 04:43:00;;;;;;;27.48;14.77;;;2.90;99.90;;;;;;4842616;29;20045;-85
2022/01/07 04:45:26;;;;;;;25.98;14.55;;;3.00;99.90;;;;;;4827328;29;20056;-86
2022/01/07 04:47:52;;;;;;;27.80;14.88;;;3.00;99.90;;;;;;4825564;29;20045;-87
2022/01/07 04:50:19;;;;;;;32.75;15.82;;;3.00;99.90;;;;;;4843119;29;20045;-86
2022/01/07 04:52:45;;;;;;;29.90;15.55;;;3.10;99.90;;;;;;4827313;29;20136;-86
2022/01/07 04:55:13;;;;;;;24.83;14.05;;;3.00;99.90;;;;;;4843136;29;20137;-85
2022/01/07 04:57:39;;;;;;;33.65;15.18;;;3.10;99.90;;;;;;4842828;29;20445;-85
2022/01/07 05:00:05;;;;;;;31.88;15.38;;;3.10;99.90;;;;;;4842532;29;20037;-85
2022/01/07 05:02:31;;;;;;;28.60;15.02;;;3.10;99.90;;;;;;4858956;29;20038;-86
2022/01/07 05:04:56;;;;;;;27.05;13.68;;;3.00;99.90;;;;;;4842820;29;20053;-86
2022/01/07 05:07:22;;;;;;;26.15;14.40;;;3.10;99.90;;;;;;4842701;29;20497;-86
2022/01/07 05:09:47;;;;;;;23.88;14.38;;;3.00;99.90;;;;;;4842376;29;20401;-85
2022/01/07 05:12:13;;;;;;;27.02;13.95;;;3.00;99.90;;;;;;4842460;29;20443;-85
2022/01/07 05:14:39;;;;;;;27.20;14.45;;;3.00;99.90;;;;;;4842477;29;20060;-86
2022/01/07 05:17:04;;;;;;;26.70;14.00;;;3.10;99.90;;;;;;4841971;29;20053;-85
2022/01/07 05:19:30;;;;;;;22.17;13.50;;;3.00;99.90;;;;;;4842537;29;20053;-86
2022/01/07 05:21:56;;;;;;;24.52;13.88;;;3.10;99.90;;;;;;4842036;29;20412;-86
2022/01/07 05:24:21;;;;;;;24.45;13.60;;;3.00;99.90;;;;;;4842655;29;20436;-85
2022/01/07 05:26:47;;;;;;;21.75;13.50;;;3.00;99.90;;;;;;4842130;29;20517;-85
2022/01/07 05:29:12;;;;;;;23.40;13.13;;;2.90;99.90;;;;;;4842467;29;20458;-86
2022/01/07 05:31:38;;;;;;;24.15;14.63;;;3.00;99.90;;;;;;4841947;29;20081;-86
2022/01/07 05:34:03;;;;;;;21.83;13.10;;;2.90;99.90;;;;;;4841921;29;20045;-84
2022/01/07 05:36:29;;;;;;;18.63;12.55;;;3.00;99.90;;;;;;4826913;29;20084;-86
2022/01/07 05:38:54;;;;;;;19.75;13.30;;;3.10;99.90;;;;;;4826717;29;20507;-85
2022/01/07 05:41:20;;;;;;;25.20;14.00;;;3.00;99.90;;;;;;4826830;29;20049;-86
2022/01/07 05:43:46;;;;;;;27.77;14.85;;;3.10;99.90;;;;;;4841164;29;20504;-86
2022/01/07 05:46:14;;;;;;;20.88;12.13;;;3.00;99.90;;;;;;4841815;29;20060;-86
2022/01/07 05:48:42;;;;;;;25.58;13.57;;;3.00;99.90;;;;;;4841899;29;20046;-85
2022/01/07 05:51:08;;;;;;;24.73;13.32;;;3.10;99.90;;;;;;4842020;29;20045;-86
2022/01/07 05:53:33;;;;;;;21.25;13.05;;;3.10;99.90;;;;;;4841003;29;20101;-86
2022/01/07 05:55:59;;;;;;;21.77;13.52;;;3.10;99.90;;;;;;4841497;29;20042;-85
2022/01/07 05:58:24;;;;;;;25.55;13.13;;;3.10;99.90;;;;;;4841557;29;20468;-85
2022/01/07 06:00:50;;;;;;;22.83;13.30;;;3.10;99.90;;;;;;4841528;29;20053;-86
2022/01/07 06:03:15;;;;;;;21.90;11.95;;;3.20;99.90;;;;;;4841916;29;20052;-86
2022/01/07 06:05:41;;;;;;;22.58;13.52;;;3.20;99.90;;;;;;4841324;29;20051;-86
2022/01/07 06:08:09;;;;;;;22.13;12.70;;;3.00;99.90;;;;;;4841715;29;20049;-85
2022/01/07 06:10:35;;;;;;;21.35;12.38;;;3.00;99.90;;;;;;4841541;29;20135;-85
2022/01/07 06:13:00;;;;;;;21.83;12.35;;;3.20;99.90;;;;;;4825652;29;20826;-85
2022/01/07 06:15:26;;;;;;;19.80;13.15;;;3.20;99.90;;;;;;4825851;29;20060;-85
2022/01/07 06:17:51;;;;;;;18.17;11.10;;;3.20;99.90;;;;;;4841367;29;20389;-87
2022/01/07 06:20:18;;;;;;;19.40;13.10;;;3.30;99.90;;;;;;4841573;29;20197;-86
2022/01/07 06:22:44;;;;;;;17.38;11.43;;;3.30;99.90;;;;;;4841243;29;20453;-86
2022/01/07 06:25:09;;;;;;;23.73;12.98;;;3.30;99.90;;;;;;4841058;29;20083;-86
2022/01/07 06:27:35;;;;;;;21.00;12.45;;;3.30;99.90;;;;;;4825217;29;20086;-87
2022/01/07 06:30:01;;;;;;;22.70;12.82;;;3.20;99.90;;;;;;4839653;29;20057;-86
2022/01/07 06:32:26;;;;;;;22.20;12.80;;;3.20;99.90;;;;;;4842067;29;20048;-86
2022/01/07 06:34:52;;;;;;;18.38;11.30;;;3.30;99.90;;;;;;4838803;29;20050;-87
2022/01/07 06:37:18;;;;;;;21.15;12.23;;;3.40;99.90;;;;;;4829884;29;20177;-86
2022/01/07 06:39:44;;;;;;;22.08;13.20;;;3.40;99.90;;;;;;4841679;29;20053;-86
2022/01/07 06:42:10;;;;;;;21.35;13.32;;;3.40;99.90;;;;;;4858043;29;20050;-87
2022/01/07 06:44:36;;;;;;;22.65;13.35;;;3.40;99.90;;;;;;4838413;29;20060;-86
2022/01/07 06:47:03;;;;;;;20.13;13.32;;;3.40;99.90;;;;;;4859443;29;20056;-87
2022/01/07 06:49:28;;;;;;;20.98;13.45;;;3.50;99.90;;;;;;4862962;29;20069;-87
2022/01/07 06:51:54;;;;;;;19.13;13.23;;;3.30;99.90;;;;;;4826097;29;20137;-87
2022/01/07 06:54:20;;;;;;;19.80;12.15;;;3.40;99.90;;;;;;4840618;29;20077;-87
2022/01/07 06:56:46;;;;;;;20.92;12.60;;;3.40;99.90;;;;;;4824756;29;20136;-87
2022/01/07 06:59:12;;;;;;;23.38;13.82;;;3.50;99.90;;;;;;4832435;29;20668;-87
2022/01/07 07:01:39;;;;;;;20.95;13.05;;;3.50;99.90;;;;;;4826261;29;20077;-86
2022/01/07 07:04:05;;;;;;;22.13;14.82;;;3.40;99.90;;;;;;4827318;29;20056;-86
2022/01/07 07:06:30;;;;;;;21.55;12.48;;;3.40;99.90;;;;;;4840318;29;20474;-86
2022/01/07 07:08:56;;;;;;;21.45;13.48;;;3.40;99.90;;;;;;4839970;29;20037;-87
2022/01/07 07:11:22;;;;;;;23.35;13.80;;;3.30;99.90;;;;;;4840243;29;20477;-87
2022/01/07 07:13:47;;;;;;;24.83;14.13;;;3.40;99.90;;;;;;4825213;29;20041;-87
2022/01/07 07:16:14;;;;;;;25.25;15.88;;;3.30;99.90;;;;;;4840648;29;20045;-87
2022/01/07 07:18:39;;;;;;;28.95;15.63;;;3.30;99.90;;;;;;4840995;29;20045;-87
2022/01/07 07:21:05;;;;;;;24.67;13.95;;;3.30;99.90;;;;;;4840333;29;20060;-87
2022/01/07 07:23:31;;;;;;;23.45;14.70;;;3.40;99.90;;;;;;4840460;29;20041;-87
2022/01/07 07:25:56;;;;;;;24.70;15.43;;;3.30;99.90;;;;;;4824972;29;20056;-87
2022/01/07 07:28:22;;;;;;;30.42;16.65;;;3.30;99.90;;;;;;4840729;29;20100;-87
2022/01/07 07:30:48;;;;;;;30.92;16.48;;;3.30;99.90;;;;;;4840736;29;20193;-87
2022/01/07 07:38:38;;;;;;;32.78;17.98;;;3.40;99.90;;;;;;4839731;29;20053;-87
2022/01/07 07:41:06;;;;;;;27.30;16.10;;;3.50;99.90;;;;;;4839818;29;20057;-87
2022/01/07 07:43:32;;;;;;;29.20;17.67;;;3.50;99.90;;;;;;4832674;29;20046;-87
2022/01/07 07:45:57;;;;;;;31.73;17.98;;;3.50;99.90;;;;;;4826240;29;20061;-86
2022/01/07 07:48:23;;;;;;;33.13;17.30;;;3.40;99.90;;;;;;4824902;29;20069;-87
2022/01/07 07:50:49;;;;;;;34.90;18.65;;;3.50;99.90;;;;;;4840922;29;20053;-86
2022/01/07 07:53:14;;;;;;;33.30;18.15;;;3.50;99.90;;;;;;4850940;29;20049;-86
2022/01/07 07:55:40;;;;;;;33.38;17.05;;;3.40;99.90;;;;;;4840291;29;20504;-87
2022/01/07 07:58:05;;;;;;;37.25;18.85;;;3.50;99.90;;;;;;4840153;29;20459;-87
2022/01/07 08:00:31;;;;;;;35.17;19.15;;;3.60;99.90;;;;;;4855515;29;20867;-87
2022/01/07 08:02:58;;;;;;;40.60;20.55;;;3.60;99.90;;;;;;4839978;29;20050;-87
2022/01/07 08:05:24;;;;;;;37.97;20.27;;;3.60;99.90;;;;;;4839070;29;20053;-87
2022/01/07 08:07:50;;;;;;;45.63;21.17;;;3.60;99.90;;;;;;4860004;29;20041;-87
2022/01/07 08:10:23;;;;;;;37.25;18.85;;;3.70;99.90;;;;;;4837632;29;20045;-87
2022/01/07 08:18:20;;;;;;;37.83;20.73;;;3.70;99.90;;;;;;4843555;29;20049;-86
2022/01/07 08:20:46;;;;;;;37.55;21.20;;;3.80;99.90;;;;;;4843368;29;20069;-90
2022/01/07 08:23:12;;;;;;;43.53;21.73;;;3.80;99.90;;;;;;4848597;29;20033;-89
2022/01/07 08:25:38;;;;;;;43.42;21.83;;;3.80;99.90;;;;;;4854967;29;20060;-89
2022/01/07 08:28:05;;;;;;;43.97;21.45;;;3.80;99.90;;;;;;4843788;29;20050;-89
2022/01/07 08:30:37;;;;;;;48.03;23.58;;;3.80;99.90;;;;;;4848180;29;20527;-89
2022/01/07 08:35:49;;;;;;;43.22;22.77;;;3.80;99.90;;;;;;4845098;29;20089;-90
2022/01/07 08:38:14;;;;;;;55.35;26.13;;;3.90;99.90;;;;;;4860947;29;20080;-89
2022/01/07 08:40:40;;;;;;;47.05;22.67;;;3.90;99.90;;;;;;4859615;29;20059;-87
2022/01/07 08:43:06;;;;;;;55.00;26.02;;;3.90;99.90;;;;;;4849161;29;20045;-87
2022/01/07 08:45:32;;;;;;;52.90;27.35;;;3.90;99.90;;;;;;4843091;29;20140;-87
2022/01/07 08:47:59;;;;;;;52.47;26.33;;;4.00;99.90;;;;;;4842670;29;20046;-87
2022/01/07 08:50:25;;;;;;;57.72;26.33;;;4.10;99.90;;;;;;4858368;29;20053;-88
2022/01/07 08:52:52;;;;;;;55.42;26.27;;;4.10;99.90;;;;;;4842837;29;20049;-87
2022/01/07 08:55:19;;;;;;;52.60;27.17;;;4.20;99.90;;;;;;4843286;29;20049;-87
2022/01/07 08:57:45;;;;;;;57.53;26.58;;;4.30;99.90;;;;;;4843100;29;20095;-87
2022/01/07 09:00:11;;;;;;;56.35;25.08;;;4.40;99.90;;;;;;4842549;29;20042;-88
2022/01/07 09:02:37;;;;;;;56.50;26.33;;;4.40;99.90;;;;;;4828095;29;20050;-87
2022/01/07 09:05:03;;;;;;;59.25;28.50;;;4.40;99.90;;;;;;4827622;29;20492;-87
2022/01/07 09:07:28;;;;;;;50.00;25.15;;;4.40;99.90;;;;;;4842437;29;20081;-86
2022/01/07 09:09:54;;;;;;;51.47;24.08;;;4.50;99.90;;;;;;4827448;29;20482;-86
2022/01/07 09:12:19;;;;;;;55.65;26.80;;;4.50;99.90;;;;;;4842535;29;20050;-87
2022/01/07 09:14:46;;;;;;;59.45;26.98;;;4.60;99.90;;;;;;4842524;29;20045;-88
2022/01/07 09:17:11;;;;;;;63.33;27.02;;;4.50;99.90;;;;;;4842701;29;20068;-87
2022/01/07 09:19:37;;;;;;;65.53;25.83;;;4.50;99.90;;;;;;4827556;29;20092;-87
2022/01/07 09:22:03;;;;;;;57.53;25.63;;;4.60;99.90;;;;;;4842309;29;20074;-87
2022/01/07 09:24:29;;;;;;;58.92;26.38;;;4.70;99.90;;;;;;4842708;29;20109;-87
2022/01/07 09:26:56;;;;;;;49.55;26.75;;;4.70;99.90;;;;;;4826564;29;20053;-86
2022/01/07 09:29:23;;;;;;;61.63;29.23;;;4.60;99.90;;;;;;4842178;29;20056;-86
2022/01/07 09:31:50;;;;;;;52.47;27.52;;;4.60;99.90;;;;;;4841987;29;20053;-87
2022/01/07 09:34:16;;;;;;;58.65;27.08;;;4.70;99.90;;;;;;4857445;29;20041;-86
2022/01/07 09:36:41;;;;;;;54.63;27.52;;;4.70;99.90;;;;;;4823288;29;20058;-86
2022/01/07 09:39:07;;;;;;;56.28;28.73;;;4.70;99.90;;;;;;4829749;29;20037;-87
2022/01/07 09:41:33;;;;;;;59.22;27.70;;;4.80;99.90;;;;;;4842765;29;20049;-87
2022/01/07 09:44:01;;;;;;;57.25;27.90;;;4.80;99.90;;;;;;4842221;29;20072;-87
2022/01/07 09:46:27;;;;;;;65.32;30.52;;;4.80;99.90;;;;;;4842366;29;20445;-87
2022/01/07 09:48:52;;;;;;;56.35;26.55;;;4.80;99.90;;;;;;4841399;29;20033;-87
2022/01/07 09:51:18;;;;;;;53.70;28.52;;;4.80;99.90;;;;;;4846743;29;20105;-87
2022/01/07 09:53:44;;;;;;;56.47;26.92;;;4.90;99.90;;;;;;4826071;29;20049;-87
2022/01/07 09:56:11;;;;;;;52.67;24.58;;;5.00;99.90;;;;;;4826930;29;20046;-86
2022/01/07 09:58:37;;;;;;;61.88;25.95;;;5.10;99.90;;;;;;4827387;29;20042;-88
2022/01/07 10:01:05;;;;;;;59.75;26.98;;;5.10;99.90;;;;;;4844231;29;20109;-87
2022/01/07 10:03:40;;;;;;;50.78;25.13;;;5.20;99.90;;;;;;4834536;29;20086;-88
2022/01/07 10:06:17;;;;;;;45.75;19.70;;;5.20;99.90;;;;;;4839101;29;20145;-88
2022/01/07 10:08:42;;;;;;;26.17;14.15;;;5.20;99.90;;;;;;4854683;29;20100;-88
2022/01/07 10:11:20;;;;;;;20.42;10.07;;;5.20;99.90;;;;;;4849808;29;20050;-88
2022/01/07 10:14:10;;;;;;;24.17;10.80;;;5.20;99.90;;;;;;4826694;29;20049;-87
2022/01/07 10:16:50;;;;;;;22.83;12.10;;;5.10;99.90;;;;;;4841117;29;20046;-87
2022/01/07 10:19:33;;;;;;;24.85;12.80;;;5.00;99.90;;;;;;4837353;29;20045;-86
2022/01/07 10:22:04;;;;;;;22.65;11.27;;;4.90;99.90;;;;;;4836841;29;20045;-87
2022/01/07 10:24:29;;;;;;;27.08;12.80;;;4.80;99.90;;;;;;4855226;29;20423;-87
2022/01/07 10:27:13;;;;;;;23.85;12.40;;;4.70;99.90;;;;;;4835641;29;20136;-87
2022/01/07 10:29:44;;;;;;;23.85;12.52;;;4.80;99.90;;;;;;4858952;29;20132;-87
2022/01/07 10:32:29;;;;;;;25.27;12.90;;;4.80;99.90;;;;;;4825921;29;20416;-87
2022/01/07 10:35:03;;;;;;;27.67;13.27;;;4.70;99.90;;;;;;4840962;29;20051;-87
2022/01/07 10:37:29;;;;;;;28.92;13.65;;;4.70;99.90;;;;;;4846484;29;20522;-87
2022/01/07 10:39:55;;;;;;;30.17;14.20;;;4.50;99.90;;;;;;4845192;29;20053;-87
2022/01/07 10:42:22;;;;;;;28.13;12.70;;;4.50;99.90;;;;;;4847974;29;20186;-87
2022/01/07 10:45:02;;;;;;;29.35;14.48;;;4.60;99.90;;;;;;4825636;29;20094;-87
2022/01/07 10:47:29;;;;;;;29.88;15.23;;;4.60;99.90;;;;;;4842736;29;20449;-87
2022/01/07 10:50:18;;;;;;;28.25;13.35;;;4.60;99.90;;;;;;4845911;29;20068;-88
2022/01/07 10:52:44;;;;;;;32.55;13.13;;;4.70;99.90;;;;;;4843956;29;20042;-87
2022/01/07 10:55:16;;;;;;;22.30;12.27;;;4.70;99.90;;;;;;4825581;29;20053;-87
2022/01/07 10:57:46;;;;;;;26.70;11.98;;;4.80;99.90;;;;;;4825882;29;20085;-87
2022/01/07 11:00:14;;;;;;;23.17;10.50;;;4.80;99.90;;;;;;4830059;29;20046;-87
2022/01/07 11:02:40;;;;;;;23.98;9.77;;;4.90;99.90;;;;;;4844564;29;20492;-87
2022/01/07 11:05:07;;;;;;;21.88;9.70;;;4.90;99.90;;;;;;4839967;29;20046;-87
2022/01/07 11:07:33;;;;;;;18.48;9.60;;;4.90;99.90;;;;;;4855453;29;20132;-87
2022/01/07 11:09:58;;;;;;;22.55;10.63;;;4.90;99.90;;;;;;4840474;29;20049;-87
2022/01/07 11:12:25;;;;;;;27.25;13.40;;;4.80;99.90;;;;;;4841447;29;20467;-89
2022/01/07 11:14:51;;;;;;;25.85;13.05;;;4.80;99.90;;;;;;4859221;29;20053;-87
2022/01/07 11:17:21;;;;;;;35.05;14.68;;;5.00;99.90;;;;;;4842831;29;20075;-88
2022/01/07 11:20:01;;;;;;;28.25;14.90;;;5.00;99.90;;;;;;4825134;29;20435;-86
2022/01/07 11:22:27;;;;;;;34.63;17.00;;;5.20;99.90;;;;;;4848017;29;20049;-87
2022/01/07 11:24:56;;;;;;;33.47;16.45;;;5.20;99.90;;;;;;4858846;29;20048;-87
2022/01/07 11:27:26;;;;;;;39.90;19.80;;;5.30;99.90;;;;;;4840353;29;20049;-88
2022/01/07 11:30:04;;;;;;;44.90;18.63;;;5.20;99.90;;;;;;4840249;29;20053;-88
2022/01/07 11:32:37;;;;;;;38.53;19.00;;;5.20;99.90;;;;;;4850764;29;20132;-87
2022/01/07 11:35:40;;;;;;;36.85;19.33;;;5.10;99.90;;;;;;4858779;29;20141;-88
2022/01/07 11:38:14;;;;;;;38.42;19.10;;;5.10;99.90;;;;;;4852915;29;20049;-87
2022/01/07 11:40:39;;;;;;;;;;;5.00;99.90;;;;;;4825716;29;20076;-87
2022/01/07 11:43:15;;;;;;;49.35;20.20;;;4.90;99.90;;;;;;4840389;29;20390;-88
2022/01/07 11:45:43;;;;;;;41.15;19.33;;;4.90;99.90;;;;;;4836045;29;20061;-88
2022/01/07 11:48:24;;;;;;;38.72;19.13;;;4.80;99.90;;;;;;4840301;29;20056;-87
2022/01/07 11:50:54;;;;;;;44.08;19.90;;;4.90;99.90;;;;;;4839296;29;20053;-87
2022/01/07 11:53:20;;;;;;;32.63;17.35;;;5.00;99.90;;;;;;4840658;29;20045;-87
2022/01/07 11:55:45;;;;;;;30.42;16.77;;;5.00;99.90;;;;;;4839517;29;20071;-87
2022/01/07 11:58:13;;;;;;;31.17;15.88;;;5.10;99.90;;;;;;4840451;29;20515;-87
2022/01/07 12:00:50;;;;;;;24.42;12.63;;;5.10;99.90;;;;;;4840200;29;20095;-87
2022/01/07 12:03:53;;;;;;;24.02;11.18;;;5.10;99.90;;;;;;4840372;29;20449;-87
2022/01/07 12:06:24;;;;;;;16.02;9.43;;;5.10;99.90;;;;;;4840340;29;20045;-87
2022/01/07 12:08:56;;;;;;;15.45;6.95;;;5.30;99.90;;;;;;4836393;29;20104;-87
2022/01/07 12:11:23;;;;;;;16.45;7.15;;;5.20;99.90;;;;;;4839869;29;20056;-88
2022/01/07 12:13:49;;;;;;;8.07;5.50;;;5.20;99.90;;;;;;4840120;29;20041;-87
2022/01/07 12:16:21;;;;;;;12.23;3.92;;;5.20;99.90;;;;;;4841207;29;20048;-87
2022/01/07 12:18:47;;;;;;;10.93;3.50;;;5.10;99.90;;;;;;4824087;29;20041;-87
2022/01/07 12:21:13;;;;;;;13.60;4.68;;;5.20;99.90;;;;;;4840056;29;20179;-87
2022/01/07 12:23:39;;;;;;;11.07;3.28;;;5.20;99.90;;;;;;4824983;29;20041;-87
2022/01/07 12:26:05;;;;;;;8.55;2.95;;;5.10;99.90;;;;;;4824629;29;20049;-87
2022/01/07 12:28:42;;;;;;;10.75;3.33;;;5.00;99.90;;;;;;4824935;29;20516;-87
2022/01/07 12:31:09;;;;;;;11.75;2.63;;;5.00;99.90;;;;;;4839355;29;20045;-87
2022/01/07 12:33:38;;;;;;;10.95;3.38;;;4.90;99.90;;;;;;4824360;29;20049;-86
2022/01/07 12:36:04;;;;;;;11.60;2.75;;;4.80;99.90;;;;;;4842892;29;20091;-86
2022/01/07 12:38:30;;;;;;;10.45;2.67;;;4.80;99.90;;;;;;4858153;29;20045;-87
2022/01/07 12:40:59;;;;;;;10.52;2.50;;;4.90;99.90;;;;;;4857671;29;20044;-87
2022/01/07 12:43:31;;;;;;;9.70;2.08;;;5.00;99.90;;;;;;4858143;29;20045;-87
2022/01/07 12:46:03;;;;;;;8.95;2.10;;;5.10;99.90;;;;;;4857535;29;20053;-87
2022/01/07 12:48:40;;;;;;;8.77;2.47;;;5.00;99.90;;;;;;4858351;29;20053;-87
2022/01/07 12:51:08;;;;;;;9.00;2.85;;;5.00;99.90;;;;;;4839723;29;20060;-86